createdAt,value
2023-03-28T00:00:26.142Z,1.34
2023-03-28T00:03:29.734Z,1.28
2023-03-28T00:06:32.402Z,1.23
2023-03-28T00:09:35.074Z,1.16
2023-03-28T00:12:37.487Z,1.14
2023-03-28T00:15:41.009Z,1.09
2023-03-28T00:18:43.503Z,1.05
2023-03-28T00:21:47.589Z,0.97
2023-03-28T00:24:50.787Z,0.90
2023-03-28T00:27:53.400Z,0.84
2023-03-28T00:31:02.411Z,0.81
2023-03-28T00:34:05.662Z,0.77
2023-03-28T00:37:10.729Z,0.68
2023-03-28T00:40:14.031Z,0.67
2023-03-28T00:43:34.469Z,0.66
2023-03-28T00:46:41.918Z,0.60
2023-03-28T00:49:46.841Z,0.56
2023-03-28T00:52:49.813Z,0.51
2023-03-28T00:55:56.276Z,0.47
2023-03-28T00:59:04.954Z,0.47
2023-03-28T01:02:07.427Z,0.44
2023-03-28T01:05:12.128Z,0.42
2023-03-28T01:08:18.213Z,0.39
2023-03-28T01:11:21.484Z,0.38
2023-03-28T01:14:26.458Z,0.39
2023-03-28T01:17:30.794Z,0.42
2023-03-28T01:20:42.050Z,0.40
2023-03-28T01:23:44.866Z,0.35
2023-03-28T01:26:50.441Z,0.31
2023-03-28T01:30:12.257Z,0.24
2023-03-28T01:33:40.243Z,0.21
2023-03-28T01:36:52.369Z,0.20
2023-03-28T01:40:02.302Z,0.23
2023-03-28T01:43:27.523Z,0.17
2023-03-28T01:46:32.934Z,0.21
2023-03-28T01:49:43.368Z,0.25
2023-03-28T01:53:03.495Z,0.19
2023-03-28T01:56:22.368Z,0.18
2023-03-28T01:59:31.803Z,0.22
2023-03-28T02:02:36.916Z,0.30
2023-03-28T02:05:41.761Z,0.24
2023-03-28T02:08:46.559Z,0.18
2023-03-28T02:11:51.738Z,0.15
2023-03-28T02:14:57.090Z,0.12
2023-03-28T02:18:06.908Z,0.15
2023-03-28T02:21:21.381Z,0.10
2023-03-28T02:24:25.993Z,0.06
2023-03-28T02:27:28.664Z,0.06
2023-03-28T02:30:35.954Z,0.08
2023-03-28T02:33:40.023Z,0.09
2023-03-28T02:37:01.120Z,0.08
2023-03-28T02:40:22.373Z,0.08
2023-03-28T02:43:44.888Z,0.09
2023-03-28T02:47:06.223Z,0.11
2023-03-28T02:50:09.128Z,0.15
2023-03-28T02:53:27.269Z,0.13
2023-03-28T02:56:37.137Z,0.15
2023-03-28T02:59:42.419Z,0.12
2023-03-28T03:02:49.311Z,0.13
2023-03-28T03:05:52.065Z,0.13
2023-03-28T03:08:54.507Z,0.17
2023-03-28T03:11:57.576Z,0.22
2023-03-28T03:15:01.240Z,0.17
2023-03-28T03:18:16.954Z,0.10
2023-03-28T03:21:21.833Z,0.07
2023-03-28T03:24:25.177Z,0.03
2023-03-28T03:27:28.070Z,0.02
2023-03-28T03:30:34.195Z,0.05
2023-03-28T03:33:37.824Z,0.03
2023-03-28T03:36:40.690Z,0.02
2023-03-28T03:39:46.648Z,-0.03
2023-03-28T03:42:50.030Z,-0.06
2023-03-28T03:45:52.713Z,-0.07
2023-03-28T03:48:55.784Z,-0.10
2023-03-28T03:51:58.281Z,-0.09
2023-03-28T03:55:01.463Z,-0.16
2023-03-28T03:58:06.242Z,-0.17
2023-03-28T04:01:13.996Z,-0.16
2023-03-28T04:04:16.921Z,-0.11
2023-03-28T04:07:23.178Z,-0.20
2023-03-28T04:10:28.623Z,-0.16
2023-03-28T04:13:31.173Z,-0.20
2023-03-28T04:16:41.060Z,-0.23
2023-03-28T04:19:45.871Z,-0.14
2023-03-28T04:22:50.284Z,-0.19
2023-03-28T04:25:55.366Z,-0.14
2023-03-28T04:29:00.450Z,-0.21
2023-03-28T04:35:12.410Z,-0.18
2023-03-28T04:38:20.446Z,-0.17
2023-03-28T04:41:28.221Z,-0.14
2023-03-28T04:44:32.510Z,-0.17
2023-03-28T04:47:40.319Z,-0.16
2023-03-28T04:50:44.345Z,-0.13
2023-03-28T04:53:48.036Z,-0.17
2023-03-28T04:56:53.663Z,-0.15
2023-03-28T04:59:56.904Z,-0.08
2023-03-28T05:03:00.891Z,-0.01
2023-03-28T05:06:04.629Z,0.05
2023-03-28T05:09:07.565Z,0.08
2023-03-28T05:12:10.337Z,0.15
2023-03-28T05:15:22.194Z,0.27
2023-03-28T05:18:27.337Z,0.33
2023-03-28T05:21:29.704Z,0.39
2023-03-28T05:24:33.698Z,0.44
2023-03-28T05:27:38.717Z,0.48
2023-03-28T05:30:41.973Z,0.52
2023-03-28T05:33:44.487Z,0.61
2023-03-28T05:36:57.361Z,0.69
2023-03-28T05:39:59.926Z,0.75
2023-03-28T05:43:03.042Z,0.78
2023-03-28T05:46:05.910Z,0.82
2023-03-28T05:49:08.826Z,0.91
2023-03-28T05:52:11.316Z,1.09
2023-03-28T05:55:14.269Z,2.92
2023-03-28T05:58:18.100Z,5.23
2023-03-28T06:01:23.342Z,6.47
2023-03-28T06:04:28.006Z,8.66
2023-03-28T06:07:41.536Z,9.72
2023-03-28T06:10:47.036Z,10.61
2023-03-28T06:13:49.779Z,10.81
2023-03-28T06:16:53.077Z,12.13
2023-03-28T06:19:55.723Z,12.61
2023-03-28T06:23:01.010Z,12.25
2023-03-28T06:26:05.084Z,12.76
2023-03-28T06:29:08.466Z,14.19
2023-03-28T06:32:12.586Z,12.89
2023-03-28T06:35:16.007Z,12.59
2023-03-28T06:38:18.468Z,11.36
2023-03-28T06:41:24.155Z,11.09
2023-03-28T06:44:26.594Z,12.32
2023-03-28T06:47:30.338Z,12.08
2023-03-28T06:50:35.224Z,11.75
2023-03-28T06:53:38.062Z,10.30
2023-03-28T06:56:40.895Z,9.96
2023-03-28T06:59:43.784Z,9.65
2023-03-28T07:02:47.877Z,8.65
2023-03-28T07:05:51.087Z,7.51
2023-03-28T07:08:54.377Z,7.37
2023-03-28T07:11:59.056Z,8.66
2023-03-28T07:15:01.393Z,10.75
2023-03-28T07:18:05.390Z,10.54
2023-03-28T07:21:08.410Z,9.03
2023-03-28T07:24:11.429Z,9.46
2023-03-28T07:27:16.638Z,10.91
2023-03-28T07:30:20.751Z,11.86
2023-03-28T07:33:29.764Z,13.73
2023-03-28T07:36:38.678Z,12.98
2023-03-28T07:39:43.813Z,13.11
2023-03-28T07:42:49.166Z,12.94
2023-03-28T07:45:54.050Z,11.51
2023-03-28T07:48:56.897Z,10.89
2023-03-28T07:51:59.925Z,10.85
2023-03-28T07:55:02.630Z,11.10
2023-03-28T07:58:07.397Z,11.20
2023-03-28T08:01:12.707Z,9.77
2023-03-28T08:04:15.817Z,9.25
2023-03-28T08:07:20.301Z,9.40
2023-03-28T08:10:24.028Z,9.40
2023-03-28T08:13:26.794Z,9.52
2023-03-28T08:16:30.358Z,10.58
2023-03-28T08:19:34.436Z,10.10
2023-03-28T08:22:38.338Z,10.91
2023-03-28T08:25:41.584Z,9.46
2023-03-28T08:28:44.252Z,7.80
2023-03-28T08:31:47.948Z,7.45
2023-03-28T08:34:51.347Z,7.87
2023-03-28T08:37:56.739Z,7.48
2023-03-28T08:41:09.373Z,7.56
2023-03-28T08:44:25.020Z,7.93
2023-03-28T08:47:32.276Z,8.52
2023-03-28T08:50:39.320Z,9.12
2023-03-28T08:53:44.645Z,8.53
2023-03-28T08:56:49.672Z,7.60
2023-03-28T09:00:02.197Z,7.10
2023-03-28T09:03:15.677Z,6.79
2023-03-28T09:06:26.420Z,6.84
2023-03-28T09:09:49.118Z,6.62
2023-03-28T09:13:04.356Z,6.54
2023-03-28T09:16:20.243Z,7.03
2023-03-28T09:19:44.878Z,6.89
2023-03-28T09:22:53.589Z,7.03
2023-03-28T09:25:58.825Z,7.03
2023-03-28T09:29:06.710Z,7.32
2023-03-28T09:32:21.122Z,7.60
2023-03-28T09:35:24.725Z,7.67
2023-03-28T09:39:00.849Z,7.76
2023-03-28T09:42:13.408Z,8.17
2023-03-28T09:45:36.323Z,8.03
2023-03-28T09:48:40.923Z,7.84
2023-03-28T09:51:46.271Z,7.49
2023-03-28T09:54:50.400Z,7.94
2023-03-28T09:58:01.444Z,8.06
2023-03-28T10:01:05.432Z,7.69
2023-03-28T10:04:11.391Z,7.33
2023-03-28T10:07:14.257Z,7.74
2023-03-28T10:10:20.661Z,8.03
2023-03-28T10:13:24.045Z,7.58
2023-03-28T10:16:28.861Z,7.42
2023-03-28T10:19:33.926Z,7.82
2023-03-28T10:22:39.332Z,7.85
2023-03-28T10:25:47.497Z,8.37
2023-03-28T10:28:54.704Z,8.47
2023-03-28T10:31:57.530Z,8.99
2023-03-28T10:35:02.376Z,8.85
2023-03-28T10:38:05.783Z,8.54
2023-03-28T10:41:19.378Z,7.81
2023-03-28T10:44:32.971Z,8.07
2023-03-28T10:47:36.057Z,8.13
2023-03-28T10:50:44.026Z,7.83
2023-03-28T10:54:17.436Z,7.90
2023-03-28T10:57:26.311Z,8.21
2023-03-28T11:00:43.615Z,7.67
2023-03-28T11:04:06.222Z,7.25
2023-03-28T11:07:19.213Z,6.99
2023-03-28T11:10:26.167Z,7.15
2023-03-28T11:13:48.628Z,7.20
2023-03-28T11:16:51.489Z,7.25
2023-03-28T11:20:17.757Z,6.95
2023-03-28T11:23:20.998Z,7.22
2023-03-28T11:26:31.182Z,7.92
2023-03-28T11:29:43.072Z,8.58
2023-03-28T11:32:47.583Z,8.66
2023-03-28T11:36:14.734Z,8.13
2023-03-28T11:39:29.605Z,8.13
2023-03-28T11:42:36.694Z,7.96
2023-03-28T11:45:52.227Z,8.13
2023-03-28T11:49:13.829Z,8.09
2023-03-28T11:52:31.859Z,8.32
2023-03-28T11:55:38.322Z,8.27
2023-03-28T11:58:45.933Z,7.66
2023-03-28T12:01:50.933Z,8.19
2023-03-28T12:05:07.635Z,8.13
2023-03-28T12:08:20.344Z,7.97
2023-03-28T12:11:28.086Z,7.94
2023-03-28T12:14:32.250Z,8.05
2023-03-28T12:17:39.381Z,8.00
2023-03-28T12:21:01.256Z,8.17
2023-03-28T12:24:17.378Z,8.36
2023-03-28T12:27:19.988Z,8.35
2023-03-28T12:30:26.125Z,8.01
2023-03-28T12:33:43.328Z,7.72
2023-03-28T12:36:49.377Z,7.73
2023-03-28T12:39:51.855Z,8.12
2023-03-28T12:42:56.832Z,8.18
2023-03-28T12:46:02.731Z,8.32
2023-03-28T12:49:09.091Z,8.14
2023-03-28T12:52:14.602Z,8.05
2023-03-28T12:55:31.442Z,8.12
2023-03-28T12:58:35.575Z,7.88
2023-03-28T13:01:47.009Z,7.42
2023-03-28T13:05:09.567Z,6.84
2023-03-28T13:08:24.341Z,6.71
2023-03-28T13:11:38.833Z,6.59
2023-03-28T13:14:42.341Z,6.51
2023-03-28T13:17:47.110Z,6.39
2023-03-28T13:20:54.052Z,6.52
2023-03-28T13:23:57.154Z,6.42
2023-03-28T13:27:28.892Z,6.44
2023-03-28T13:30:31.962Z,6.55
2023-03-28T13:33:38.092Z,6.84
2023-03-28T13:36:49.973Z,6.93
2023-03-28T13:39:59.293Z,7.14
2023-03-28T13:43:01.866Z,7.00
2023-03-28T13:46:27.155Z,7.03
2023-03-28T13:49:29.455Z,6.46
2023-03-28T13:52:32.667Z,5.96
2023-03-28T13:55:35.930Z,5.75
2023-03-28T13:58:38.618Z,5.66
2023-03-28T14:01:49.176Z,5.50
2023-03-28T14:04:53.366Z,5.48
2023-03-28T14:08:01.489Z,5.56
2023-03-28T14:11:04.649Z,5.66
2023-03-28T14:14:11.939Z,5.93
2023-03-28T14:17:20.094Z,6.01
2023-03-28T14:20:23.036Z,5.97
2023-03-28T14:23:30.948Z,5.92
2023-03-28T14:26:35.212Z,5.93
2023-03-28T14:29:51.453Z,6.17
2023-03-28T14:33:01.202Z,6.38
2023-03-28T14:36:06.267Z,6.38
2023-03-28T14:39:18.383Z,6.40
2023-03-28T14:42:22.566Z,6.46
2023-03-28T14:45:26.204Z,6.37
2023-03-28T14:48:29.470Z,6.22
2023-03-28T14:51:42.667Z,6.30
2023-03-28T14:54:46.834Z,6.34
2023-03-28T14:57:53.329Z,6.22
2023-03-28T15:00:59.032Z,6.23
2023-03-28T15:04:07.029Z,6.26
2023-03-28T15:07:33.163Z,6.12
2023-03-28T15:10:56.956Z,6.03
2023-03-28T15:14:35.991Z,6.14
2023-03-28T15:17:59.542Z,6.15
2023-03-28T15:21:03.619Z,6.03
2023-03-28T15:24:10.231Z,5.77
2023-03-28T15:27:22.347Z,5.74
2023-03-28T15:30:25.574Z,5.72
2023-03-28T15:33:31.622Z,5.77
2023-03-28T15:36:34.807Z,5.56
2023-03-28T15:39:40.366Z,5.59
2023-03-28T15:42:46.045Z,5.49
2023-03-28T15:45:54.285Z,5.41
2023-03-28T15:49:00.416Z,5.44
2023-03-28T15:52:05.182Z,5.28
2023-03-28T15:55:07.733Z,5.17
2023-03-28T15:58:13.504Z,5.10
2023-03-28T16:01:20.380Z,5.08
2023-03-28T16:04:23.076Z,5.05
2023-03-28T16:07:26.842Z,5.01
2023-03-28T16:10:30.298Z,5.01
2023-03-28T16:13:36.811Z,4.98
2023-03-28T16:16:43.292Z,4.86
2023-03-28T16:19:48.787Z,4.79
2023-03-28T16:22:51.491Z,4.73
2023-03-28T16:25:53.898Z,4.63
2023-03-28T16:28:56.903Z,4.56
2023-03-28T16:31:59.385Z,4.53
2023-03-28T16:35:02.230Z,4.47
2023-03-28T16:38:04.811Z,4.44
2023-03-28T16:41:07.640Z,4.36
2023-03-28T16:44:09.928Z,4.39
2023-03-28T16:47:12.587Z,4.45
2023-03-28T16:50:15.393Z,4.48
2023-03-28T16:53:18.041Z,4.45
2023-03-28T16:56:20.525Z,4.35
2023-03-28T16:59:23.528Z,4.30
2023-03-28T17:02:26.026Z,4.24
2023-03-28T17:05:28.696Z,4.20
2023-03-28T17:08:31.255Z,4.21
2023-03-28T17:11:34.795Z,4.22
2023-03-28T17:14:37.483Z,4.19
2023-03-28T17:17:40.279Z,4.17
2023-03-28T17:20:42.718Z,3.90
2023-03-28T17:23:47.222Z,3.73
2023-03-28T17:26:49.638Z,3.60
2023-03-28T17:29:52.479Z,3.45
2023-03-28T17:32:54.920Z,3.35
2023-03-28T17:35:57.658Z,3.32
2023-03-28T17:39:00.334Z,3.20
2023-03-28T17:42:03.136Z,3.19
2023-03-28T17:45:07.297Z,3.17
2023-03-28T17:48:12.621Z,3.11
2023-03-28T17:51:15.416Z,3.10
2023-03-28T17:54:18.046Z,3.03
2023-03-28T17:57:20.867Z,2.98
2023-03-28T18:00:23.854Z,2.99
2023-03-28T18:03:27.922Z,2.98
2023-03-28T18:06:33.820Z,2.90
2023-03-28T18:09:36.618Z,2.76
2023-03-28T18:12:39.011Z,2.70
2023-03-28T18:15:42.241Z,2.75
2023-03-28T18:18:44.877Z,2.63
2023-03-28T18:21:47.785Z,2.65
2023-03-28T18:24:50.253Z,2.67
2023-03-28T18:27:52.917Z,2.63
2023-03-28T18:30:55.236Z,2.55
2023-03-28T18:33:58.305Z,2.52
2023-03-28T18:37:00.744Z,2.46
2023-03-28T18:40:07.208Z,2.37
2023-03-28T18:43:09.874Z,2.35
2023-03-28T18:46:16.360Z,2.41
2023-03-28T18:49:19.819Z,2.45
2023-03-28T18:52:22.593Z,2.48
2023-03-28T18:55:24.894Z,2.48
2023-03-28T18:58:27.746Z,2.50
2023-03-28T19:01:30.270Z,2.55
2023-03-28T19:04:33.228Z,2.52
2023-03-28T19:07:35.591Z,2.44
2023-03-28T19:10:38.468Z,2.39
2023-03-28T19:13:41.466Z,2.44
2023-03-28T19:16:44.379Z,2.39
2023-03-28T19:19:46.709Z,2.38
2023-03-28T19:22:49.258Z,2.33
2023-03-28T19:25:51.778Z,2.30
2023-03-28T19:28:54.462Z,2.20
2023-03-28T19:31:57.134Z,2.14
2023-03-28T19:35:00.159Z,2.13
2023-03-28T19:38:02.474Z,2.07
2023-03-28T19:41:10.407Z,2.08
2023-03-28T19:44:13.679Z,2.15
2023-03-28T19:47:16.332Z,2.10
2023-03-28T19:50:18.984Z,2.10
2023-03-28T19:53:21.922Z,2.09
2023-03-28T19:56:24.155Z,2.18
2023-03-28T19:59:26.822Z,2.11
2023-03-28T20:02:29.492Z,2.07
2023-03-28T20:05:32.095Z,2.05
2023-03-28T20:08:35.163Z,2.01
2023-03-28T20:11:41.970Z,1.99
2023-03-28T20:14:44.802Z,1.97
2023-03-28T20:17:48.591Z,1.91
2023-03-28T20:20:51.935Z,1.95
2023-03-28T20:23:55.259Z,1.89
2023-03-28T20:26:58.051Z,1.85
2023-03-28T20:30:00.799Z,1.87
2023-03-28T20:33:04.043Z,1.88
2023-03-28T20:36:07.338Z,1.89
2023-03-28T20:39:10.589Z,2.02
2023-03-28T20:42:13.591Z,2.07
2023-03-28T20:45:22.233Z,2.14
2023-03-28T20:48:34.549Z,2.13
2023-03-28T20:51:39.349Z,2.13
2023-03-28T20:54:42.181Z,2.15
2023-03-28T20:57:44.488Z,2.15
2023-03-28T21:00:47.719Z,2.03
2023-03-28T21:03:50.385Z,2.05
2023-03-28T21:06:55.203Z,2.00
2023-03-28T21:09:59.514Z,2.04
2023-03-28T21:13:02.164Z,2.08
2023-03-28T21:16:04.671Z,2.00
2023-03-28T21:19:07.358Z,2.03
2023-03-28T21:22:09.798Z,1.92
2023-03-28T21:25:12.735Z,1.89
2023-03-28T21:28:16.198Z,1.80
2023-03-28T21:31:20.841Z,1.74
2023-03-28T21:34:30.825Z,1.69
2023-03-28T21:37:33.593Z,1.60
2023-03-28T21:40:35.925Z,1.61
2023-03-28T21:43:38.731Z,1.55
2023-03-28T21:46:41.146Z,1.54
2023-03-28T21:49:46.151Z,1.60
2023-03-28T21:52:48.530Z,1.59
2023-03-28T21:55:51.192Z,1.58
2023-03-28T21:58:54.033Z,1.56
2023-03-28T22:01:56.687Z,1.51
2023-03-28T22:04:59.274Z,1.43
2023-03-28T22:08:01.799Z,1.33
2023-03-28T22:11:10.877Z,1.47
2023-03-28T22:14:13.207Z,1.45
2023-03-28T22:17:15.839Z,1.46
2023-03-28T22:20:18.556Z,1.31
2023-03-28T22:23:22.474Z,1.19
2023-03-28T22:26:28.211Z,1.15
2023-03-28T22:29:30.878Z,1.14
2023-03-28T22:32:33.549Z,1.11
2023-03-28T22:35:36.315Z,1.01
2023-03-28T22:38:39.118Z,0.99
2023-03-28T22:41:44.951Z,0.98
2023-03-28T22:44:48.220Z,0.98
2023-03-28T22:47:51.616Z,0.94
2023-03-28T22:50:54.020Z,0.86
2023-03-28T22:54:00.332Z,0.82
2023-03-28T22:57:05.542Z,0.83
2023-03-28T23:00:09.345Z,0.85
2023-03-28T23:03:12.224Z,0.85
2023-03-28T23:06:15.366Z,0.87
2023-03-28T23:09:18.843Z,0.95
2023-03-28T23:12:21.568Z,0.95
2023-03-28T23:15:24.131Z,0.91
2023-03-28T23:18:27.036Z,0.87
2023-03-28T23:21:30.979Z,0.90
2023-03-28T23:24:35.550Z,0.76
2023-03-28T23:27:37.988Z,0.71
2023-03-28T23:30:40.712Z,0.69
2023-03-28T23:33:46.254Z,0.74
2023-03-28T23:36:50.639Z,0.72
2023-03-28T23:39:53.951Z,0.56
2023-03-28T23:42:56.457Z,0.36
2023-03-28T23:45:58.980Z,0.33
2023-03-28T23:49:01.583Z,0.40
2023-03-28T23:52:04.036Z,0.55
2023-03-28T23:55:08.774Z,0.64
2023-03-28T23:58:11.481Z,0.57
